Time;durP1;ratioP1;P1;durP2;ratioP2;P2;SDS_P1;SDS_P2;PMS_P1;PMS_P2;Temp;Humidity;BMP_temperature;BMP_pressure;BME280_temperature;BME280_humidity;BME280_pressure;Samples;Min_cycle;Max_cycle;Signal;HPM_P1;HPM_P2
2023/11/15 00:00:10;;;;;;;26.82;16.15;;;;;;;7.37;100.00;98933.53;1642982;87;21034;-64
2023/11/15 00:02:39;;;;;;;46.58;27.25;;;;;;;7.37;100.00;98932.17;1640709;87;21569;-62
2023/11/15 00:05:09;;;;;;;40.28;20.68;;;;;;;7.36;100.00;98935.95;1661260;86;21079;-62
2023/11/15 00:07:37;;;;;;;29.82;15.83;;;;;;;7.35;100.00;98938.36;1617735;89;21001;-64
2023/11/15 00:10:07;;;;;;;30.95;16.40;;;;;;;7.35;100.00;98939.72;1617511;87;21105;-64
2023/11/15 00:12:36;;;;;;;22.07;12.95;;;;;;;7.35;100.00;98928.83;1640517;87;21098;-65
2023/11/15 00:15:08;;;;;;;22.13;12.00;;;;;;;7.34;100.00;98935.32;1661378;86;21046;-64
2023/11/15 00:17:38;;;;;;;24.15;12.25;;;;;;;7.33;100.00;98925.48;1617519;89;21555;-64
2023/11/15 00:20:13;;;;;;;26.20;13.62;;;;;;;7.31;100.00;98931.98;1617889;89;21157;-63
2023/11/15 00:22:42;;;;;;;22.30;11.28;;;;;;;7.30;100.00;98933.02;1640531;87;21038;-64
2023/11/15 00:25:11;;;;;;;22.58;11.63;;;;;;;7.29;100.00;98929.98;1661192;86;21474;-64
2023/11/15 00:27:41;;;;;;;33.42;18.65;;;;;;;7.27;100.00;98934.81;1617502;87;21066;-62
2023/11/15 00:30:13;;;;;;;23.55;13.18;;;;;;;7.24;100.00;98926.23;1617696;89;21081;-64
2023/11/15 00:32:41;;;;;;;40.80;21.02;;;;;;;7.24;100.00;98928.95;1640679;87;21102;-65
2023/11/15 00:35:12;;;;;;;32.05;17.00;;;;;;;7.22;100.00;98920.99;1661488;86;21019;-64
2023/11/15 00:37:42;;;;;;;61.23;35.08;;;;;;;7.21;100.00;98922.05;1617449;87;21073;-64
2023/11/15 00:40:13;;;;;;;62.23;35.60;;;;;;;7.21;100.00;98919.31;1625601;87;21087;-65
2023/11/15 00:42:43;;;;;;;57.70;31.55;;;;;;;7.21;100.00;98918.48;1658436;86;21078;-65
2023/11/15 00:45:14;;;;;;;65.42;37.17;;;;;;;7.19;100.00;98918.69;1658385;86;21062;-64
2023/11/15 00:47:43;;;;;;;58.58;31.48;;;;;;;7.18;100.00;98914.30;1658430;86;21451;-63
2023/11/15 00:50:12;;;;;;;53.63;26.57;;;;;;;7.18;100.00;98910.73;1658489;86;21086;-64
2023/11/15 00:52:40;;;;;;;54.90;32.83;;;;;;;7.17;100.00;98912.63;1640789;87;21049;-65
2023/11/15 00:55:09;;;;;;;57.48;31.65;;;;;;;7.17;100.00;98907.17;1624965;86;21556;-64
2023/11/15 00:57:38;;;;;;;61.55;34.70;;;;;;;7.15;100.00;98902.47;1658669;86;21054;-63
2023/11/15 01:00:39;;;;;;;68.52;38.55;;;;;;;7.17;100.00;98900.89;1658398;86;21004;-63
2023/11/15 01:02:46;;;;;;;68.57;38.17;;;;;;;7.15;100.00;98906.55;1650132;86;21035;-65
2023/11/15 01:05:11;;;;;;;45.05;24.55;;;;;;;7.13;100.00;98901.81;1658153;86;21102;-64
2023/11/15 01:07:40;;;;;;;30.55;15.32;;;;;;;7.12;100.00;98902.86;1658788;86;21023;-64
2023/11/15 01:10:11;;;;;;;39.80;23.50;;;;;;;7.11;100.00;98898.98;1658447;86;21083;-64
2023/11/15 01:12:41;;;;;;;54.00;28.17;;;;;;;7.11;100.00;98897.09;1624089;86;21066;-63
2023/11/15 01:15:11;;;;;;;65.97;34.43;;;;;;;7.09;100.00;98892.39;1658379;86;21035;-64
2023/11/15 01:17:41;;;;;;;69.90;37.45;;;;;;;7.08;100.00;98892.08;1658342;86;21015;-64
2023/11/15 01:20:12;;;;;;;58.28;33.42;;;;;;;7.10;100.00;98895.42;1658330;86;21070;-63
2023/11/15 01:22:40;;;;;;;64.15;36.20;;;;;;;7.10;100.00;98886.41;1658448;86;21067;-64
2023/11/15 01:25:09;;;;;;;39.85;23.73;;;;;;;7.08;100.00;98873.02;1658475;86;21054;-64
2023/11/15 01:27:38;;;;;;;49.85;27.55;;;;;;;7.08;100.00;98874.38;1658580;86;21118;-65
2023/11/15 01:30:08;;;;;;;31.77;16.20;;;;;;;7.07;100.00;98869.98;1658620;86;21063;-63
2023/11/15 01:32:37;;;;;;;46.02;26.07;;;;;;;7.06;100.00;98866.95;1658339;86;21225;-64
2023/11/15 01:35:09;;;;;;;46.50;25.55;;;;;;;7.07;100.00;98871.86;1658426;86;21481;-64
2023/11/15 01:37:38;;;;;;;46.53;24.43;;;;;;;7.07;100.00;98871.86;1640836;87;21116;-63
2023/11/15 01:40:09;;;;;;;59.15;33.45;;;;;;;7.07;100.00;98868.62;1658358;86;21099;-64
2023/11/15 01:42:40;;;;;;;54.27;33.05;;;;;;;7.08;100.00;98872.17;1658416;86;21050;-64
2023/11/15 01:45:10;;;;;;;57.83;32.50;;;;;;;7.07;100.00;98868.62;1658343;85;21015;-63
2023/11/15 01:47:39;;;;;;;70.90;38.92;;;;;;;7.06;100.00;98877.84;1658338;86;21525;-62
2023/11/15 01:50:10;;;;;;;47.20;27.10;;;;;;;7.06;100.00;98871.03;1658413;86;21035;-63
2023/11/15 01:52:41;;;;;;;44.00;25.75;;;;;;;7.05;100.00;98869.88;1658322;86;21517;-62
2023/11/15 01:55:14;;;;;;;63.68;38.35;;;;;;;7.03;100.00;98874.70;1657806;86;21063;-63
2023/11/15 01:57:44;;;;;;;51.25;31.35;;;;;;;7.03;100.00;98876.06;1658446;86;21019;-63
2023/11/15 02:00:14;;;;;;;62.93;35.95;;;;;;;7.00;100.00;98878.16;1658439;86;21096;-63
2023/11/15 02:02:43;;;;;;;75.40;43.95;;;;;;;7.00;100.00;98871.36;1658365;86;21054;-63
2023/11/15 02:05:13;;;;;;;40.85;25.02;;;;;;;6.97;100.00;98877.22;1658207;86;21624;-63
2023/11/15 02:07:43;;;;;;;39.90;24.05;;;;;;;6.96;100.00;98879.63;1658519;86;21063;-63
2023/11/15 02:10:15;;;;;;;32.58;18.87;;;;;;;6.95;100.00;98884.77;1625555;86;21094;-63
2023/11/15 02:12:44;;;;;;;31.17;17.55;;;;;;;6.94;100.00;98886.34;1658556;86;21488;-63
2023/11/15 02:15:15;;;;;;;34.13;19.98;;;;;;;6.94;100.00;98889.90;1658360;86;21043;-64
2023/11/15 02:17:48;;;;;;;46.42;26.33;;;;;;;6.95;100.00;98889.38;1658370;86;21091;-64
2023/11/15 02:20:16;;;;;;;49.10;30.02;;;;;;;6.92;100.00;98882.98;1658599;86;21055;-63
2023/11/15 02:22:47;;;;;;;48.73;29.60;;;;;;;6.91;100.00;98888.96;1658445;85;21122;-62
2023/11/15 02:25:16;;;;;;;49.88;29.35;;;;;;;6.91;100.00;98894.93;1658361;86;21034;-63
2023/11/15 02:27:45;;;;;;;37.75;24.30;;;;;;;6.90;100.00;98884.56;1658403;86;21586;-63
2023/11/15 02:30:14;;;;;;;48.55;27.73;;;;;;;6.90;100.00;98891.89;1658471;86;21494;-63
2023/11/15 02:32:43;;;;;;;40.98;24.32;;;;;;;6.89;100.00;98892.94;1658643;86;21067;-64
2023/11/15 02:35:13;;;;;;;35.50;21.20;;;;;;;6.88;100.00;98896.19;1658329;86;21201;-63
2023/11/15 02:37:44;;;;;;;22.93;10.90;;;;;;;6.86;100.00;98901.00;1658341;86;21042;-62
2023/11/15 02:40:13;;;;;;;22.48;13.85;;;;;;;6.86;100.00;98904.25;1660084;86;21151;-64
2023/11/15 02:42:41;;;;;;;33.23;11.30;;;;;;;6.86;100.00;98904.25;1617417;89;21466;-64
2023/11/15 02:45:10;;;;;;;15.23;8.78;;;;;;;6.86;100.00;98905.09;1617669;89;21002;-64
2023/11/15 02:47:39;;;;;;;23.50;11.08;;;;;;;6.84;100.00;98907.19;1640440;87;21070;-63
2023/11/15 02:50:08;;;;;;;24.92;13.05;;;;;;;6.84;100.00;98901.73;1661238;86;21066;-63
2023/11/15 02:52:37;;;;;;;18.40;11.97;;;;;;;6.83;100.00;98904.67;1617626;87;21069;-62
2023/11/15 02:55:07;;;;;;;22.50;10.70;;;;;;;6.82;100.00;98913.36;1617496;87;21033;-63
2023/11/15 02:57:35;;;;;;;17.10;10.32;;;;;;;6.80;100.00;98916.81;1640584;87;21142;-64
2023/11/15 03:00:06;;;;;;;18.80;8.78;;;;;;;6.79;100.00;98918.39;1661570;86;21018;-64
2023/11/15 03:02:35;;;;;;;16.70;7.55;;;;;;;6.77;100.00;98906.35;1617666;89;21050;-64
2023/11/15 03:05:06;;;;;;;15.90;7.40;;;;;;;6.78;100.00;98908.55;1617664;89;21062;-63
2023/11/15 03:07:34;;;;;;;19.77;7.65;;;;;;;6.78;100.00;98909.91;1617515;89;21025;-64
2023/11/15 03:10:08;;;;;;;17.92;7.03;;;;;;;6.82;100.00;98924.78;1617548;87;21181;-63
2023/11/15 03:12:35;;;;;;;16.60;7.75;;;;;;;6.82;100.00;98926.14;1640674;87;21161;-64
2023/11/15 03:15:05;;;;;;;18.42;8.93;;;;;;;6.83;100.00;98916.92;1642730;87;21053;-63
2023/11/15 03:17:34;;;;;;;14.33;6.83;;;;;;;6.84;100.00;98915.35;1640479;87;21486;-62
2023/11/15 03:20:05;;;;;;;17.82;7.67;;;;;;;6.87;100.00;98920.91;1661248;86;21104;-63
2023/11/15 03:22:34;;;;;;;16.02;8.05;;;;;;;6.87;100.00;98922.27;1617515;87;21181;-63
2023/11/15 03:25:04;;;;;;;18.70;8.48;;;;;;;6.86;100.00;98925.50;1617495;87;21197;-66
2023/11/15 03:27:32;;;;;;;19.60;8.98;;;;;;;6.87;100.00;98919.54;1640587;87;21122;-64
2023/11/15 03:30:02;;;;;;;13.50;8.13;;;;;;;6.87;100.00;98922.27;1661306;86;21022;-63
2023/11/15 03:32:32;;;;;;;17.17;7.58;;;;;;;6.86;100.00;98917.34;1636701;87;21558;-62
2023/11/15 03:35:00;;;;;;;18.80;9.33;;;;;;;6.84;100.00;98924.88;1613873;87;21070;-64
2023/11/15 03:37:30;;;;;;;18.55;10.65;;;;;;;6.84;100.00;98932.21;1613910;89;21087;-64
2023/11/15 03:39:59;;;;;;;18.20;9.68;;;;;;;6.83;100.00;98930.53;1610720;87;21116;-65
2023/11/15 03:42:30;;;;;;;14.58;7.33;;;;;;;6.83;100.00;98934.62;1637615;87;21447;-64
2023/11/15 03:44:59;;;;;;;15.38;7.87;;;;;;;6.83;100.00;98926.45;1658231;86;21086;-63
2023/11/15 03:47:28;;;;;;;17.52;8.93;;;;;;;6.83;100.00;98926.45;1658459;86;21055;-64
2023/11/15 03:49:57;;;;;;;15.85;9.58;;;;;;;6.81;100.00;98924.46;1658426;86;21046;-64
2023/11/15 03:52:26;;;;;;;24.45;12.30;;;;;;;6.79;100.00;98917.87;1658544;86;21070;-65
2023/11/15 03:54:54;;;;;;;44.00;29.05;;;;;;;6.80;100.00;98911.37;1658400;86;21023;-63
2023/11/15 03:57:24;;;;;;;52.50;29.23;;;;;;;6.79;100.00;98921.11;1658603;86;21035;-64
2023/11/15 03:59:54;;;;;;;42.65;28.77;;;;;;;6.78;100.00;98926.24;1658331;85;21504;-64
2023/11/15 04:02:23;;;;;;;44.20;26.95;;;;;;;6.79;100.00;98926.56;1658466;86;21170;-64
2023/11/15 04:04:52;;;;;;;46.50;25.62;;;;;;;6.79;100.00;98925.20;1658357;86;21074;-63
2023/11/15 04:07:21;;;;;;;32.08;19.12;;;;;;;6.81;100.00;98928.55;1625265;86;21239;-62
2023/11/15 04:09:50;;;;;;;23.35;15.32;;;;;;;6.81;100.00;98925.83;1658575;85;21066;-63
2023/11/15 04:12:20;;;;;;;24.25;12.95;;;;;;;6.79;100.00;98934.72;1658415;86;21074;-65
2023/11/15 04:14:49;;;;;;;18.42;9.20;;;;;;;6.81;100.00;98932.63;1658296;86;21027;-63
2023/11/15 04:17:19;;;;;;;18.80;8.68;;;;;;;6.81;100.00;98928.02;1624192;86;21102;-64
2023/11/15 04:19:48;;;;;;;14.95;9.30;;;;;;;6.82;100.00;98932.94;1658547;86;21059;-65
2023/11/15 04:22:16;;;;;;;18.15;9.98;;;;;;;6.81;100.00;98926.66;1640678;87;21124;-64
2023/11/15 04:24:46;;;;;;;21.17;11.65;;;;;;;6.79;100.00;98929.28;1658566;86;21078;-65
2023/11/15 04:27:16;;;;;;;22.67;12.18;;;;;;;6.78;100.00;98925.72;1641140;86;21072;-63
2023/11/15 04:29:44;;;;;;;20.12;12.78;;;;;;;6.77;100.00;98932.73;1658433;86;21066;-64
2023/11/15 04:32:13;;;;;;;17.67;11.15;;;;;;;6.78;100.00;98933.88;1658446;86;21512;-63
2023/11/15 04:34:42;;;;;;;20.97;9.38;;;;;;;6.79;100.00;98938.80;1658440;86;21351;-64
2023/11/15 04:37:11;;;;;;;16.05;9.03;;;;;;;6.78;100.00;98943.94;1658358;86;21087;-63
2023/11/15 04:39:39;;;;;;;18.27;9.53;;;;;;;6.76;100.00;98947.39;1658753;86;21221;-64
2023/11/15 04:42:10;;;;;;;17.62;10.32;;;;;;;6.74;100.00;98946.76;1617632;87;21041;-63
2023/11/15 04:44:38;;;;;;;19.02;11.33;;;;;;;6.71;100.00;98943.94;1594617;89;21100;-63
2023/11/15 04:47:08;;;;;;;18.15;11.25;;;;;;;6.68;100.00;98946.55;1642821;86;21049;-63
2023/11/15 04:49:37;;;;;;;23.00;12.03;;;;;;;6.68;100.00;98945.71;1617644;89;21050;-64
2023/11/15 04:52:07;;;;;;;22.70;12.15;;;;;;;6.66;100.00;98958.16;1617798;89;21065;-63
2023/11/15 04:54:36;;;;;;;21.15;11.80;;;;;;;6.65;100.00;98959.73;1617419;89;21062;-65
2023/11/15 04:57:05;;;;;;;20.05;10.18;;;;;;;6.63;100.00;98960.47;1640392;87;21142;-63
2023/11/15 04:59:34;;;;;;;19.57;9.45;;;;;;;6.61;100.00;98959.31;1661299;86;21526;-64
2023/11/15 05:02:03;;;;;;;18.15;9.35;;;;;;;6.62;100.00;98963.70;1617446;89;21002;-63
2023/11/15 05:04:33;;;;;;;20.00;8.73;;;;;;;6.62;100.00;98969.67;1640702;87;21054;-63
2023/11/15 05:07:02;;;;;;;22.93;9.33;;;;;;;6.62;100.00;98978.67;1661437;86;21126;-65
2023/11/15 05:09:30;;;;;;;18.37;8.30;;;;;;;6.62;100.00;98974.59;1617635;87;21537;-63
2023/11/15 05:12:01;;;;;;;18.85;9.00;;;;;;;6.64;100.00;98980.67;1617660;87;21022;-64
2023/11/15 05:14:31;;;;;;;16.90;8.15;;;;;;;6.65;100.00;98983.70;1640672;87;21059;-64
2023/11/15 05:17:00;;;;;;;19.73;11.78;;;;;;;6.67;100.00;98988.42;1639056;86;21082;-63
2023/11/15 05:19:29;;;;;;;22.45;10.72;;;;;;;6.71;100.00;98992.09;1617483;89;20986;-61
2023/11/15 05:21:58;;;;;;;26.65;16.57;;;;;;;6.74;100.00;98994.39;1594581;89;21066;-64
2023/11/15 05:24:27;;;;;;;16.05;10.05;;;;;;;6.77;100.00;98993.98;1640397;87;21057;-65
2023/11/15 05:26:55;;;;;;;19.30;7.95;;;;;;;6.81;100.00;98992.52;1661543;86;21027;-63
2023/11/15 05:29:25;;;;;;;17.95;8.65;;;;;;;6.84;100.00;98994.82;1617676;89;21033;-64
2023/11/15 05:31:54;;;;;;;16.85;6.95;;;;;;;6.87;100.00;98995.77;1640463;87;21054;-64
2023/11/15 05:34:23;;;;;;;11.50;6.92;;;;;;;6.91;100.00;99000.58;1661240;86;21150;-63
2023/11/15 05:36:51;;;;;;;14.95;6.97;;;;;;;6.93;100.00;98994.93;1617426;89;21107;-64
2023/11/15 05:39:21;;;;;;;13.32;8.55;;;;;;;6.96;100.00;98994.52;1617614;89;21065;-64
2023/11/15 05:41:51;;;;;;;15.38;8.08;;;;;;;6.99;100.00;98988.64;1610937;87;21490;-63
2023/11/15 05:44:20;;;;;;;17.98;9.38;;;;;;;7.00;100.00;98995.25;1658435;86;21087;-64
2023/11/15 05:46:49;;;;;;;19.20;8.73;;;;;;;7.04;100.00;98994.83;1658536;86;21007;-64
2023/11/15 05:49:17;;;;;;;14.78;9.35;;;;;;;7.05;100.00;98992.42;1640930;87;21085;-64
2023/11/15 05:51:46;;;;;;;17.30;8.43;;;;;;;7.07;100.00;98987.59;1658377;86;21086;-65
2023/11/15 05:54:16;;;;;;;18.82;10.20;;;;;;;7.08;100.00;98988.75;1658325;86;21030;-64
2023/11/15 05:56:48;;;;;;;15.50;8.50;;;;;;;7.11;100.00;98991.58;1658525;86;21119;-65
2023/11/15 05:59:17;;;;;;;14.85;8.30;;;;;;;7.16;100.00;98998.62;1658316;86;21055;-64
2023/11/15 06:01:46;;;;;;;17.48;8.88;;;;;;;7.20;100.00;98998.52;1658559;86;21015;-64
2023/11/15 06:04:15;;;;;;;19.67;9.23;;;;;;;7.21;100.00;99004.28;1640794;87;21045;-64
2023/11/15 06:06:44;;;;;;;18.32;9.00;;;;;;;7.23;100.00;98997.58;1658466;86;21070;-64
2023/11/15 06:09:15;;;;;;;16.20;9.23;;;;;;;7.27;100.00;99002.91;1658496;86;21095;-65
2023/11/15 06:11:44;;;;;;;21.70;11.78;;;;;;;7.31;100.00;98999.25;1658391;86;21110;-64
2023/11/15 06:14:15;;;;;;;20.17;10.10;;;;;;;7.35;100.00;99003.75;1640726;87;21099;-64
2023/11/15 06:16:44;;;;;;;18.02;10.00;;;;;;;7.39;100.00;99005.00;1640479;86;21181;-65
2023/11/15 06:19:12;;;;;;;21.55;10.15;;;;;;;7.44;100.00;99001.12;1658418;86;21078;-63
2023/11/15 06:21:44;;;;;;;18.02;10.03;;;;;;;7.47;100.00;99011.06;1658353;86;21541;-64
2023/11/15 06:24:14;;;;;;;20.02;9.93;;;;;;;7.52;100.00;98996.80;1658420;86;21194;-64
2023/11/15 06:26:43;;;;;;;17.12;8.35;;;;;;;7.56;100.00;99002.14;1658166;86;21101;-64
2023/11/15 06:29:12;;;;;;;15.53;8.10;;;;;;;7.60;100.00;99007.48;1658411;86;21083;-64
2023/11/15 06:31:41;;;;;;;14.68;7.12;;;;;;;7.61;100.00;99000.98;1625349;86;21102;-66
2023/11/15 06:34:10;;;;;;;12.85;7.40;;;;;;;7.64;100.00;98997.83;1658541;86;21050;-64
2023/11/15 06:36:39;;;;;;;13.65;6.67;;;;;;;7.69;100.00;99002.11;1625394;86;21066;-65
2023/11/15 06:39:12;;;;;;;14.70;7.00;;;;;;;7.72;100.00;99008.50;1658332;86;21106;-64
2023/11/15 06:41:41;;;;;;;15.08;8.50;;;;;;;7.75;100.00;99007.23;1633984;86;21515;-65
2023/11/15 06:44:10;;;;;;;21.65;8.15;;;;;;;7.78;100.00;99000.83;1617446;89;21089;-66
2023/11/15 06:46:39;;;;;;;17.12;8.53;;;;;;;7.82;100.00;99002.11;1642634;87;21022;-64
2023/11/15 06:49:10;;;;;;;24.05;14.40;;;;;;;7.87;100.00;99009.12;1640536;87;21078;-65
2023/11/15 06:51:39;;;;;;;26.80;15.58;;;;;;;7.91;100.00;99008.16;1661452;86;21035;-65
2023/11/15 06:54:07;;;;;;;36.15;23.12;;;;;;;7.93;100.00;99010.98;1617468;89;21018;-64
2023/11/15 06:56:36;;;;;;;35.75;16.37;;;;;;;7.94;100.00;99010.46;1617638;89;21521;-65
2023/11/15 06:59:05;;;;;;;26.12;12.35;;;;;;;7.95;100.00;99011.61;1617304;89;21046;-63
2023/11/15 07:01:33;;;;;;;22.30;12.78;;;;;;;7.98;100.00;99013.07;1642741;87;21025;-65
2023/11/15 07:04:03;;;;;;;23.02;12.00;;;;;;;8.00;100.00;99014.22;1640639;87;21110;-64
2023/11/15 07:06:32;;;;;;;20.62;12.45;;;;;;;8.00;100.00;99016.95;1661368;86;21050;-64
2023/11/15 07:09:02;;;;;;;14.53;8.78;;;;;;;8.02;100.00;99024.39;1594420;89;21498;-65
2023/11/15 07:11:31;;;;;;;17.50;10.38;;;;;;;8.03;100.00;99023.33;1642811;86;21479;-65
2023/11/15 07:14:01;;;;;;;25.77;14.18;;;;;;;8.05;100.00;99022.06;1640424;87;21189;-64
2023/11/15 07:16:30;;;;;;;20.95;10.78;;;;;;;8.09;100.00;99021.95;1661474;86;21046;-63
2023/11/15 07:18:59;;;;;;;21.75;12.60;;;;;;;8.14;99.78;99022.66;1617474;89;21050;-66
2023/11/15 07:21:30;;;;;;;24.05;11.85;;;;;;;8.16;99.74;99024.65;1617481;89;21046;-64
2023/11/15 07:23:59;;;;;;;22.25;13.48;;;;;;;8.20;99.13;99025.89;1617432;87;21466;-64
2023/11/15 07:26:30;;;;;;;23.67;11.45;;;;;;;8.20;98.94;99020.44;1640778;87;21046;-63
2023/11/15 07:29:00;;;;;;;25.70;10.58;;;;;;;8.22;98.93;99019.69;1661386;86;21054;-66
2023/11/15 07:31:29;;;;;;;22.62;11.85;;;;;;;8.26;99.06;99019.05;1617630;89;21156;-63
2023/11/15 07:33:59;;;;;;;17.65;9.80;;;;;;;8.31;98.76;99014.83;1617401;89;21631;-65
2023/11/15 07:36:29;;;;;;;24.67;10.72;;;;;;;8.36;98.40;99020.50;1642905;87;21046;-65
2023/11/15 07:38:59;;;;;;;19.20;11.48;;;;;;;8.41;98.41;99016.06;1617345;89;21516;-70
2023/11/15 07:41:28;;;;;;;21.23;10.25;;;;;;;8.47;98.05;99008.41;1623925;88;21568;-64
2023/11/15 07:43:58;;;;;;;19.70;11.05;;;;;;;8.56;97.77;99004.89;1685789;85;21096;-64
2023/11/15 07:46:29;;;;;;;17.98;9.80;;;;;;;8.65;97.79;99006.30;1685562;85;20985;-65
2023/11/15 07:48:58;;;;;;;18.62;8.93;;;;;;;8.72;97.62;98996.70;1648000;87;21059;-65
2023/11/15 07:51:30;;;;;;;24.75;13.08;;;;;;;8.82;97.33;99001.15;1609564;89;21108;-65
2023/11/15 07:54:00;;;;;;;30.92;15.72;;;;;;;8.91;96.67;98997.09;1602977;88;21081;-64
2023/11/15 07:56:29;;;;;;;25.77;10.30;;;;;;;9.01;96.31;99007.00;1685574;85;21518;-65
2023/11/15 07:58:58;;;;;;;27.17;8.75;;;;;;;9.17;96.04;98999.65;1685734;85;21056;-69
2023/11/15 08:01:27;;;;;;;19.85;11.95;;;;;;;9.30;95.33;98995.97;1685521;85;21052;-65
2023/11/15 08:03:56;;;;;;;22.87;12.85;;;;;;;9.41;94.40;98999.33;1685739;85;21020;-64
2023/11/15 08:06:25;;;;;;;31.40;12.85;;;;;;;9.47;93.45;99001.69;1685681;85;21045;-65
2023/11/15 08:08:54;;;;;;;25.27;13.55;;;;;;;9.50;93.07;98995.77;1685706;85;21085;-65
2023/11/15 08:11:24;;;;;;;18.67;7.70;;;;;;;9.52;92.83;98995.02;1685786;85;21061;-64
2023/11/15 08:13:53;;;;;;;20.17;7.75;;;;;;;9.53;92.59;98997.53;1625594;87;21086;-64
2023/11/15 08:16:27;;;;;;;28.23;9.35;;;;;;;9.52;92.39;98993.13;1625851;87;21051;-64
2023/11/15 08:18:54;;;;;;;26.15;11.20;;;;;;;9.51;92.30;98994.18;1647923;87;21099;-65
2023/11/15 08:21:23;;;;;;;22.00;10.13;;;;;;;9.55;92.08;98993.20;1636355;88;21118;-64
2023/11/15 08:23:52;;;;;;;16.82;8.05;;;;;;;9.56;91.81;98989.41;1685597;85;21024;-64
2023/11/15 08:26:22;;;;;;;14.38;7.05;;;;;;;9.61;91.90;98990.94;1654028;85;21048;-66
2023/11/15 08:28:52;;;;;;;13.75;5.65;;;;;;;9.68;92.22;98994.97;1647876;87;21026;-63
2023/11/15 08:31:23;;;;;;;16.17;6.95;;;;;;;9.73;91.83;98983.65;1636133;88;21050;-63
2023/11/15 08:33:53;;;;;;;18.60;6.45;;;;;;;9.77;90.85;98983.53;1647683;87;21075;-63
2023/11/15 08:36:22;;;;;;;14.63;5.78;;;;;;;9.79;90.36;98993.72;1636177;88;21130;-65
2023/11/15 08:38:52;;;;;;;13.83;6.30;;;;;;;9.81;89.92;98982.55;1647857;87;21431;-65
2023/11/15 08:41:21;;;;;;;12.70;6.40;;;;;;;9.84;89.50;98987.03;1636540;88;21078;-65
2023/11/15 08:43:49;;;;;;;15.75;6.78;;;;;;;9.84;88.76;98987.03;1610991;88;21117;-65
2023/11/15 08:46:19;;;;;;;16.17;6.08;;;;;;;9.84;88.99;98992.50;1638032;88;21071;-65
2023/11/15 08:48:51;;;;;;;15.55;6.28;;;;;;;9.85;89.08;98984.59;1611987;88;21066;-65
2023/11/15 08:51:23;;;;;;;13.85;6.37;;;;;;;9.88;88.78;98985.20;1641590;86;21059;-65
2023/11/15 08:53:51;;;;;;;28.52;8.18;;;;;;;9.90;88.62;98973.50;1658303;86;21087;-64
2023/11/15 08:56:20;;;;;;;21.90;7.40;;;;;;;9.92;89.00;98975.48;1658496;86;21490;-64
2023/11/15 08:58:48;;;;;;;17.73;6.83;;;;;;;9.95;88.55;98975.86;1658483;86;21056;-64
2023/11/15 09:01:17;;;;;;;17.92;7.00;;;;;;;10.01;88.25;98963.16;1658432;86;21135;-65
2023/11/15 09:03:46;;;;;;;17.90;6.08;;;;;;;10.03;88.32;98963.77;1640929;87;21562;-64
2023/11/15 09:06:16;;;;;;;17.07;6.65;;;;;;;10.07;88.54;98962.24;1625005;86;21122;-64
2023/11/15 09:08:46;;;;;;;21.65;9.00;;;;;;;10.12;88.56;98952.81;1635422;86;21066;-64
2023/11/15 09:11:16;;;;;;;18.00;6.50;;;;;;;10.18;88.47;98953.26;1658515;86;21525;-65
2023/11/15 09:13:47;;;;;;;17.65;6.72;;;;;;;10.23;88.88;98960.27;1658405;86;21455;-64
2023/11/15 09:16:19;;;;;;;18.77;6.45;;;;;;;10.29;88.79;98952.51;1658460;86;21084;-65
2023/11/15 09:18:50;;;;;;;14.47;6.20;;;;;;;10.34;88.37;98953.18;1683251;83;21099;-65
2023/11/15 09:21:27;;;;;;;17.52;6.22;;;;;;;10.39;88.28;98955.52;1686749;83;21007;-67
2023/11/15 09:24:07;;;;;;;17.02;5.62;;;;;;;10.55;89.30;98955.97;1698415;83;21064;-65
2023/11/15 09:26:48;;;;;;;18.48;6.85;;;;;;;10.69;89.44;98959.65;1710219;82;21056;-66
2023/11/15 09:29:19;;;;;;;14.60;7.30;;;;;;;10.82;89.52;98954.50;1704771;82;21044;-66
2023/11/15 09:31:50;;;;;;;19.98;7.62;;;;;;;10.94;89.42;98956.73;1722931;82;21037;-64
2023/11/15 09:34:21;;;;;;;18.85;5.83;;;;;;;10.97;88.04;98950.77;1711133;82;21114;-64
2023/11/15 09:36:53;;;;;;;13.48;5.40;;;;;;;11.07;88.20;98951.06;1697022;84;21168;-64
2023/11/15 09:39:25;;;;;;;18.75;5.97;;;;;;;11.13;87.79;98945.70;1698143;83;21093;-65
2023/11/15 09:41:57;;;;;;;17.32;6.30;;;;;;;11.21;88.46;98942.61;1733805;81;21078;-64
2023/11/15 09:44:35;;;;;;;14.47;5.80;;;;;;;11.28;87.76;98947.44;1704550;84;21064;-64
2023/11/15 09:47:06;;;;;;;14.93;5.87;;;;;;;11.34;86.98;98943.21;1704662;84;21157;-63
2023/11/15 09:49:35;;;;;;;14.60;6.33;;;;;;;11.28;84.65;98943.33;1679568;84;21060;-65
2023/11/15 09:52:05;;;;;;;11.35;5.62;;;;;;;11.26;85.15;98944.10;1704568;83;21100;-64
2023/11/15 09:54:34;;;;;;;15.93;5.85;;;;;;;11.19;84.60;98940.11;1686315;83;21508;-64
2023/11/15 09:57:04;;;;;;;14.58;5.33;;;;;;;11.15;84.58;98933.43;1723510;83;21114;-65
2023/11/15 09:59:33;;;;;;;15.63;5.90;;;;;;;11.08;83.79;98932.17;1717851;83;21084;-63
2023/11/15 10:02:04;;;;;;;11.53;5.75;;;;;;;11.03;83.95;98932.02;1704551;84;21053;-64
2023/11/15 10:04:34;;;;;;;18.95;5.72;;;;;;;11.01;83.31;98938.80;1704384;83;21124;-67
2023/11/15 10:07:07;;;;;;;13.20;4.53;;;;;;;10.99;83.66;98932.19;1704414;83;21301;-64
2023/11/15 10:09:38;;;;;;;11.03;5.08;;;;;;;10.99;83.78;98928.08;1704515;84;21025;-65
2023/11/15 10:12:08;;;;;;;15.90;5.80;;;;;;;11.02;84.34;98924.87;1704618;84;21036;-65
2023/11/15 10:14:52;;;;;;;16.35;5.95;;;;;;;11.04;84.54;98923.26;1704362;83;21077;-66
2023/11/15 10:17:42;;;;;;;14.43;4.85;;;;;;;11.08;85.09;98927.23;1704481;84;21056;-65
2023/11/15 10:20:25;;;;;;;16.77;6.67;;;;;;;11.14;85.17;98928.19;1704515;84;21548;-65
2023/11/15 10:22:55;;;;;;;13.90;5.40;;;;;;;11.17;85.00;98927.71;1704465;84;21093;-68
2023/11/15 10:25:31;;;;;;;12.40;4.78;;;;;;;11.19;85.27;98927.77;1704391;84;21087;-65
2023/11/15 10:28:08;;;;;;;13.35;4.55;;;;;;;11.20;84.82;98928.61;1687372;84;21034;-64
2023/11/15 10:30:36;;;;;;;14.03;5.17;;;;;;;11.21;84.39;98927.00;1662023;86;21498;-66
2023/11/15 10:33:14;;;;;;;9.70;4.12;;;;;;;11.25;84.79;98928.19;1665864;85;21074;-64
2023/11/15 10:35:43;;;;;;;14.80;4.80;;;;;;;11.25;84.54;98926.82;1670531;85;21552;-64
2023/11/15 10:38:19;;;;;;;9.35;4.17;;;;;;;11.27;84.67;98926.05;1670958;86;21131;-63
2023/11/15 10:40:55;;;;;;;13.20;4.10;;;;;;;11.29;84.76;98932.66;1670872;86;21060;-65
2023/11/15 10:43:25;;;;;;;17.05;4.30;;;;;;;11.26;84.20;98927.12;1643105;86;21151;-65
2023/11/15 10:45:55;;;;;;;12.58;4.28;;;;;;;11.19;83.81;98930.52;1689194;84;21432;-65
2023/11/15 10:48:26;;;;;;;12.35;4.90;;;;;;;11.16;84.14;98926.05;1689399;85;21035;-65
2023/11/15 10:50:57;;;;;;;10.05;4.95;;;;;;;11.15;84.09;98928.48;1689321;85;21735;-65
2023/11/15 10:53:27;;;;;;;17.12;4.65;;;;;;;11.15;83.92;98928.48;1664341;85;21483;-69
2023/11/15 10:55:57;;;;;;;16.17;4.95;;;;;;;11.13;84.14;98935.57;1689145;85;21091;-65
2023/11/15 10:58:26;;;;;;;12.20;5.15;;;;;;;11.13;84.62;98927.89;1689171;84;21062;-67
2023/11/15 11:00:55;;;;;;;17.40;6.75;;;;;;;11.13;84.48;98930.62;1689455;85;21086;-65
2023/11/15 11:03:25;;;;;;;17.75;5.17;;;;;;;11.13;84.88;98933.37;1689217;85;21566;-65
2023/11/15 11:05:59;;;;;;;12.50;5.03;;;;;;;11.13;85.23;98932.84;1689335;85;21479;-65
2023/11/15 11:08:45;;;;;;;12.58;5.12;;;;;;;11.11;85.38;98931.70;1689108;85;21560;-65
2023/11/15 11:11:29;;;;;;;16.10;5.97;;;;;;;11.09;85.33;98925.62;1689234;85;21603;-65
2023/11/15 11:14:26;;;;;;;20.02;8.00;;;;;;;11.06;85.31;98927.47;1689224;85;21055;-65
2023/11/15 11:16:50;;;;;;;17.17;6.83;;;;;;;11.05;85.43;98927.67;1670411;85;21067;-64
2023/11/15 11:19:23;;;;;;;17.15;6.12;;;;;;;11.02;85.58;98932.25;1689357;85;21031;-66
2023/11/15 11:22:06;;;;;;;13.13;4.62;;;;;;;11.02;85.75;98940.47;1689409;85;21086;-66
2023/11/15 11:24:45;;;;;;;15.58;4.97;;;;;;;11.00;85.92;98935.23;1689247;85;21074;-65
2023/11/15 11:27:16;;;;;;;;;;;;;;;11.02;85.99;98936.37;1691971;85;21070;-65
2023/11/15 11:30:14;;;;;;;10.98;4.25;;;;;;;11.02;85.94;98939.11;1690451;85;20259;-66
2023/11/15 11:32:47;;;;;;;17.10;7.28;;;;;;;11.00;86.23;98931.12;1690818;83;21006;-65
2023/11/15 11:35:30;;;;;;;15.63;5.00;;;;;;;11.02;86.53;98937.20;1689351;85;21050;-66